Аэропорт: Атырау. Атырау

ICAO: UATG

METAR:
2019/05/26 14:00
UATG 261400Z 11008MPS CAVOK 25/11 Q1012 R14/CLRD70 NOSIG RMK QFE761/1015
METAR:
2019/05/26 12:18
TAF UATG 261101Z 2612/2712 12007MPS 9999 BKN030CB TX22/2711Z TN15/2701Z 
      TEMPO 2612/2616 5000 -SHRA 
      BECMG 2616/2618 3100 BR 
      TEMPO 2616/2620 VRB03MPS 
      TEMPO 2704/2712 -SHRA